Time;durP1;ratioP1;P1;durP2;ratioP2;P2;SDS_P1;SDS_P2;PMS_P1;PMS_P2;Temp;Humidity;BMP_temperature;BMP_pressure;BME280_temperature;BME280_humidity;BME280_pressure;Samples;Min_cycle;Max_cycle;Signal;HPM_P1;HPM_P2
2021/01/19 00:02:18;;;;;;;9.95;7.57;;;7.40;85.40;;;;;;5075077;28;20021;-77
2021/01/19 00:04:43;;;;;;;11.57;7.55;;;7.40;85.40;;;;;;5076143;28;20032;-78
2021/01/19 00:07:09;;;;;;;10.13;7.30;;;7.40;85.40;;;;;;5076080;28;20064;-77
2021/01/19 00:09:34;;;;;;;9.88;7.35;;;7.30;85.30;;;;;;5076149;28;20028;-78
2021/01/19 00:12:00;;;;;;;10.57;7.57;;;7.40;85.40;;;;;;5076317;28;20095;-78
2021/01/19 00:14:26;;;;;;;12.32;7.63;;;7.40;85.30;;;;;;5076520;28;20029;-78
2021/01/19 00:17:10;;;;;;;9.20;7.13;;;7.40;85.20;;;;;;5075882;28;20478;-78
2021/01/19 00:19:35;;;;;;;10.55;6.95;;;7.40;85.20;;;;;;5076045;28;20032;-78
2021/01/19 00:22:01;;;;;;;10.13;6.63;;;7.40;85.30;;;;;;5074580;28;20082;-77
2021/01/19 00:24:27;;;;;;;9.38;6.85;;;7.40;85.20;;;;;;5074843;28;20035;-78
2021/01/19 00:26:52;;;;;;;7.95;6.82;;;7.40;85.10;;;;;;5074248;28;20047;-78
2021/01/19 00:29:18;;;;;;;11.10;6.47;;;7.40;85.10;;;;;;5074471;28;20468;-78
2021/01/19 00:31:44;;;;;;;11.82;5.90;;;7.40;85.10;;;;;;5074754;28;20021;-78
2021/01/19 00:34:09;;;;;;;11.38;6.40;;;7.40;85.10;;;;;;5075601;28;20020;-78
2021/01/19 00:36:35;;;;;;;9.80;5.65;;;7.40;85.00;;;;;;5074559;28;20059;-78
2021/01/19 00:39:01;;;;;;;8.00;5.70;;;7.40;85.00;;;;;;5074607;28;20021;-77
2021/01/19 00:41:27;;;;;;;9.80;5.82;;;7.40;85.00;;;;;;5074399;28;20021;-78
2021/01/19 00:43:53;;;;;;;10.18;5.45;;;7.40;85.00;;;;;;5075322;28;20047;-78
2021/01/19 00:46:18;;;;;;;9.07;4.70;;;7.30;84.80;;;;;;5076118;28;20029;-77
2021/01/19 00:48:44;;;;;;;13.48;5.32;;;7.40;84.80;;;;;;5075100;28;20433;-78
2021/01/19 00:51:10;;;;;;;7.57;4.53;;;7.40;84.80;;;;;;5073915;28;20358;-78
2021/01/19 00:53:35;;;;;;;9.60;4.80;;;7.40;84.80;;;;;;5075092;28;20021;-77
2021/01/19 00:56:01;;;;;;;7.97;4.25;;;7.30;84.70;;;;;;5075245;28;20020;-78
2021/01/19 00:58:27;;;;;;;8.88;4.82;;;7.30;84.60;;;;;;5092818;28;20047;-78
2021/01/19 01:00:52;;;;;;;10.18;3.95;;;7.30;84.60;;;;;;5093247;28;20040;-78
2021/01/19 01:03:18;;;;;;;11.27;4.18;;;7.30;84.50;;;;;;5092869;28;20120;-78
2021/01/19 01:05:43;;;;;;;6.07;3.85;;;7.30;84.50;;;;;;5093237;28;20526;-78
2021/01/19 01:08:09;;;;;;;7.72;4.10;;;7.30;84.60;;;;;;5093262;28;20364;-78
2021/01/19 01:10:35;;;;;;;6.63;3.60;;;7.20;84.50;;;;;;5093191;28;20028;-78
2021/01/19 01:13:01;;;;;;;10.18;3.90;;;7.30;84.40;;;;;;5093076;28;20059;-77
2021/01/19 01:15:37;;;;;;;7.82;3.00;;;7.30;84.40;;;;;;5093132;28;20020;-78
2021/01/19 01:18:04;;;;;;;8.82;3.50;;;7.30;84.40;;;;;;5092816;28;20036;-78
2021/01/19 01:20:30;;;;;;;6.45;3.28;;;7.20;84.20;;;;;;5092687;28;20024;-78
2021/01/19 01:22:55;;;;;;;8.95;3.40;;;7.30;84.20;;;;;;5092886;28;20097;-77
2021/01/19 01:25:21;;;;;;;8.35;3.25;;;7.30;84.10;;;;;;5075782;28;20031;-78
2021/01/19 01:27:48;;;;;;;10.95;3.47;;;7.20;84.10;;;;;;5092284;28;20048;-78
2021/01/19 01:30:15;;;;;;;9.60;3.45;;;7.20;84.00;;;;;;5076838;28;20033;-78
2021/01/19 01:32:42;;;;;;;8.55;2.95;;;7.20;84.00;;;;;;5073288;28;20029;-78
2021/01/19 01:35:09;;;;;;;8.23;3.15;;;7.20;84.60;;;;;;5074191;28;20028;-78
2021/01/19 01:37:35;;;;;;;9.60;3.05;;;7.20;83.90;;;;;;5073543;28;20102;-78
2021/01/19 01:40:03;;;;;;;11.55;3.60;;;7.20;83.90;;;;;;5074145;28;20024;-78
2021/01/19 01:42:28;;;;;;;6.45;2.92;;;7.20;83.70;;;;;;5073922;28;20111;-78
2021/01/19 01:44:54;;;;;;;8.27;3.00;;;7.20;83.70;;;;;;5074292;28;20490;-76
2021/01/19 01:47:25;;;;;;;10.55;3.40;;;7.20;83.70;;;;;;5072564;28;20052;-78
2021/01/19 01:49:52;;;;;;;7.43;2.70;;;7.10;83.50;;;;;;5072268;28;20119;-78
2021/01/19 01:52:21;;;;;;;7.40;2.70;;;7.20;83.70;;;;;;5073626;28;20103;-78
2021/01/19 01:54:52;;;;;;;8.63;2.83;;;7.10;83.50;;;;;;5073982;28;20028;-78
2021/01/19 01:57:18;;;;;;;9.18;3.17;;;7.10;83.50;;;;;;5072580;28;20032;-78
2021/01/19 01:59:56;;;;;;;7.05;2.28;;;7.10;83.40;;;;;;5072367;28;20040;-78
2021/01/19 02:02:21;;;;;;;7.90;2.35;;;7.10;83.40;;;;;;5072394;28;20364;-78
2021/01/19 02:04:47;;;;;;;9.05;2.35;;;7.10;83.40;;;;;;5072428;28;20028;-78
2021/01/19 02:07:25;;;;;;;7.53;2.60;;;7.10;83.40;;;;;;5071739;28;20032;-78
2021/01/19 02:10:02;;;;;;;5.85;2.40;;;7.00;84.00;;;;;;5072224;28;20131;-78
2021/01/19 02:12:39;;;;;;;6.63;2.92;;;7.00;83.30;;;;;;5073581;28;20028;-78
2021/01/19 02:15:07;;;;;;;5.78;2.45;;;7.00;83.30;;;;;;5073694;28;20503;-77
2021/01/19 02:17:40;;;;;;;8.15;2.10;;;7.00;83.30;;;;;;5073966;28;20028;-78
2021/01/19 02:20:24;;;;;;;5.10;2.15;;;7.00;83.20;;;;;;5073981;28;20033;-77
2021/01/19 02:23:15;;;;;;;8.88;2.33;;;7.00;83.10;;;;;;5072242;28;20115;-78
2021/01/19 02:26:08;;;;;;;5.15;2.20;;;7.00;83.50;;;;;;5072241;28;20016;-78
2021/01/19 02:29:21;;;;;;;6.13;2.15;;;6.90;83.20;;;;;;5073454;28;20040;-77
2021/01/19 02:32:22;;;;;;;7.18;2.17;;;7.00;83.00;;;;;;5073299;28;20399;-78
2021/01/19 02:34:56;;;;;;;7.10;2.35;;;7.00;83.10;;;;;;5071983;28;20150;-78
2021/01/19 02:37:47;;;;;;;5.72;1.95;;;7.00;82.90;;;;;;5072353;28;20040;-78
2021/01/19 02:40:17;;;;;;;7.78;2.20;;;7.00;82.70;;;;;;5071793;28;20029;-78
2021/01/19 02:43:09;;;;;;;8.07;2.03;;;7.00;82.60;;;;;;5072894;28;20017;-78
2021/01/19 02:45:35;;;;;;;8.10;2.15;;;7.00;82.50;;;;;;5073126;28;20416;-77
2021/01/19 02:48:01;;;;;;;4.88;1.75;;;7.00;83.10;;;;;;5071610;28;20017;-77
2021/01/19 02:50:27;;;;;;;6.53;2.25;;;7.10;82.40;;;;;;5071598;28;20028;-78
2021/01/19 02:52:54;;;;;;;5.53;1.95;;;7.00;82.20;;;;;;5073024;28;20020;-78
2021/01/19 02:55:20;;;;;;;7.07;1.95;;;7.00;82.20;;;;;;5071712;28;20078;-77
2021/01/19 02:58:17;;;;;;;5.18;2.00;;;7.00;82.00;;;;;;5071769;28;20020;-78
2021/01/19 03:00:51;;;;;;;6.70;2.00;;;7.00;82.00;;;;;;5071625;28;20028;-78
2021/01/19 03:03:18;;;;;;;6.63;2.10;;;6.90;82.10;;;;;;5071638;28;20384;-78
2021/01/19 03:05:45;;;;;;;5.93;1.90;;;6.90;82.00;;;;;;5072961;28;20482;-78
2021/01/19 03:08:13;;;;;;;9.85;2.17;;;6.90;82.10;;;;;;5071854;28;20052;-78
2021/01/19 03:10:42;;;;;;;9.00;2.42;;;7.00;82.00;;;;;;5071808;28;20029;-78
2021/01/19 03:13:14;;;;;;;6.90;2.72;;;6.90;81.90;;;;;;5071552;28;20077;-77
2021/01/19 03:15:40;;;;;;;5.97;2.00;;;6.90;82.20;;;;;;5072886;28;20025;-78
2021/01/19 03:18:07;;;;;;;5.82;2.28;;;6.90;82.30;;;;;;5071744;28;20029;-78
2021/01/19 03:20:33;;;;;;;7.25;1.90;;;6.90;82.10;;;;;;5075711;28;20024;-77
2021/01/19 03:22:59;;;;;;;5.00;2.05;;;6.90;82.00;;;;;;5075820;28;20055;-78
2021/01/19 03:25:25;;;;;;;7.97;2.67;;;6.90;82.00;;;;;;5075769;28;20078;-78
2021/01/19 03:27:51;;;;;;;8.52;2.40;;;6.80;81.80;;;;;;5076730;28;20044;-78
2021/01/19 03:30:17;;;;;;;8.30;2.70;;;6.80;81.80;;;;;;5075611;28;20353;-78
2021/01/19 03:32:43;;;;;;;5.18;2.58;;;6.80;81.90;;;;;;5075579;28;20030;-78
2021/01/19 03:35:09;;;;;;;9.02;2.92;;;6.80;82.00;;;;;;5075473;28;20017;-78
2021/01/19 03:37:35;;;;;;;5.45;2.53;;;6.80;82.10;;;;;;5075666;28;20017;-78
2021/01/19 03:40:05;;;;;;;7.40;2.80;;;6.80;82.10;;;;;;5075226;28;20086;-77
2021/01/19 03:42:31;;;;;;;7.32;2.85;;;6.80;82.20;;;;;;5075088;28;20113;-78
2021/01/19 03:44:57;;;;;;;7.90;2.75;;;6.80;82.30;;;;;;5075422;28;20050;-77
2021/01/19 03:47:22;;;;;;;10.02;2.95;;;6.80;82.40;;;;;;5075422;28;20116;-78
2021/01/19 03:49:48;;;;;;;9.40;3.00;;;6.80;82.50;;;;;;5076552;28;20376;-78
2021/01/19 03:52:13;;;;;;;8.48;2.75;;;6.80;82.50;;;;;;5075136;28;20476;-77
2021/01/19 03:54:39;;;;;;;9.32;3.22;;;6.70;82.50;;;;;;5075318;28;20037;-78
2021/01/19 03:57:05;;;;;;;9.88;3.03;;;6.70;82.60;;;;;;5076353;28;20417;-78
2021/01/19 03:59:31;;;;;;;7.20;3.28;;;6.70;82.80;;;;;;5075130;28;20361;-78
2021/01/19 04:01:56;;;;;;;5.88;2.85;;;6.70;82.90;;;;;;5076040;28;20468;-77
2021/01/19 04:04:22;;;;;;;7.60;3.15;;;6.60;82.90;;;;;;5075604;28;20036;-78
2021/01/19 04:06:47;;;;;;;7.50;2.97;;;6.70;83.50;;;;;;5076193;28;20463;-78
2021/01/19 04:09:13;;;;;;;9.75;3.28;;;6.70;83.90;;;;;;5075996;28;20023;-78
2021/01/19 04:11:39;;;;;;;7.93;3.40;;;6.60;83.70;;;;;;5075920;28;20031;-77
2021/01/19 04:14:04;;;;;;;10.73;3.85;;;6.60;83.80;;;;;;5074599;28;20017;-77
2021/01/19 04:16:30;;;;;;;7.65;3.22;;;6.60;83.90;;;;;;5074685;28;20021;-78
2021/01/19 04:18:55;;;;;;;8.50;3.72;;;6.60;83.90;;;;;;5074499;28;20108;-77
2021/01/19 04:21:23;;;;;;;6.43;3.13;;;6.60;84.00;;;;;;5074498;28;20464;-78
2021/01/19 04:23:49;;;;;;;7.95;3.80;;;6.60;84.20;;;;;;5074493;28;20047;-78
2021/01/19 04:26:14;;;;;;;9.30;3.60;;;6.60;84.20;;;;;;5075643;28;20049;-78
2021/01/19 04:28:40;;;;;;;8.80;4.07;;;6.60;84.30;;;;;;5075867;28;20086;-77
2021/01/19 04:31:06;;;;;;;10.70;3.90;;;6.50;84.50;;;;;;5075058;28;20440;-77
2021/01/19 04:33:31;;;;;;;10.32;3.85;;;6.50;84.60;;;;;;5075734;28;20020;-77
2021/01/19 04:35:57;;;;;;;10.27;3.80;;;6.50;84.70;;;;;;5074036;28;20024;-77
2021/01/19 04:38:23;;;;;;;8.75;3.97;;;6.50;84.90;;;;;;5074034;28;20024;-77
2021/01/19 04:40:48;;;;;;;8.68;3.75;;;6.50;85.10;;;;;;5074003;28;20028;-77
2021/01/19 04:43:17;;;;;;;9.02;3.80;;;6.50;85.20;;;;;;5075501;28;20033;-77
2021/01/19 04:45:43;;;;;;;6.38;4.10;;;6.40;85.40;;;;;;5074110;28;20017;-77
2021/01/19 04:48:09;;;;;;;6.35;3.47;;;6.40;85.50;;;;;;5073914;28;20023;-78
2021/01/19 04:50:36;;;;;;;6.72;3.88;;;6.40;85.60;;;;;;5073859;28;20126;-77
2021/01/19 04:53:02;;;;;;;7.88;3.45;;;6.40;85.70;;;;;;5073759;28;20009;-77
2021/01/19 04:55:28;;;;;;;9.45;3.35;;;6.40;85.70;;;;;;5075067;28;20060;-78
2021/01/19 04:58:06;;;;;;;7.50;3.40;;;6.40;85.80;;;;;;5075250;28;20033;-78
2021/01/19 05:00:36;;;;;;;5.13;3.40;;;6.40;85.80;;;;;;5073827;28;20021;-78
2021/01/19 05:03:02;;;;;;;7.88;3.53;;;6.50;85.90;;;;;;5073779;28;20029;-77
2021/01/19 05:05:37;;;;;;;8.85;4.00;;;6.50;86.00;;;;;;5073835;28;20498;-78
2021/01/19 05:08:02;;;;;;;5.20;3.13;;;6.50;86.10;;;;;;5075067;28;20029;-78
2021/01/19 05:10:38;;;;;;;6.25;3.20;;;6.50;86.00;;;;;;5074326;28;20116;-78
2021/01/19 05:13:12;;;;;;;8.57;3.92;;;6.50;86.10;;;;;;5075185;28;20031;-77
2021/01/19 05:15:44;;;;;;;;;;;6.40;86.30;;;;;;5075373;28;20054;-78
2021/01/19 05:18:16;;;;;;;6.97;3.15;;;6.40;87.10;;;;;;5074711;28;19966;-78
2021/01/19 05:20:50;;;;;;;8.87;3.50;;;6.40;86.60;;;;;;5074902;28;20024;-78
2021/01/19 05:23:22;;;;;;;5.95;2.92;;;6.40;86.70;;;;;;5073388;28;20267;-77
2021/01/19 05:25:54;;;;;;;6.10;3.42;;;6.40;86.70;;;;;;5074507;28;20036;-77
2021/01/19 05:28:39;;;;;;;4.80;2.88;;;6.40;86.90;;;;;;5073278;28;20107;-78
2021/01/19 05:31:14;;;;;;;6.70;3.10;;;6.40;86.90;;;;;;5071769;28;20089;-78
2021/01/19 05:33:39;;;;;;;5.40;2.83;;;6.40;87.10;;;;;;5073312;28;20020;-77
2021/01/19 05:36:10;;;;;;;4.38;2.65;;;6.40;87.20;;;;;;5073092;28;20120;-77
2021/01/19 05:38:50;;;;;;;4.50;2.42;;;6.40;87.30;;;;;;5073049;28;20036;-77
2021/01/19 05:41:24;;;;;;;3.97;2.65;;;6.40;87.40;;;;;;5073298;28;20153;-78
2021/01/19 05:43:53;;;;;;;5.47;2.72;;;6.40;87.50;;;;;;5072546;28;20132;-78
2021/01/19 05:46:29;;;;;;;4.82;2.70;;;6.40;87.60;;;;;;5072657;28;20028;-77
2021/01/19 05:49:00;;;;;;;3.15;2.47;;;6.40;87.70;;;;;;5073859;28;20480;-77
2021/01/19 05:51:29;;;;;;;3.92;2.30;;;6.40;87.80;;;;;;5073927;28;20537;-77
2021/01/19 05:53:59;;;;;;;4.32;2.40;;;6.40;87.80;;;;;;5072396;28;20023;-77
2021/01/19 05:56:27;;;;;;;6.90;2.63;;;6.40;87.90;;;;;;5072429;28;20433;-77
2021/01/19 05:58:53;;;;;;;6.43;2.80;;;6.40;88.40;;;;;;5072504;28;20034;-78
2021/01/19 06:01:30;;;;;;;4.30;2.35;;;6.40;87.90;;;;;;5072420;28;20027;-77
2021/01/19 06:03:58;;;;;;;5.70;2.70;;;6.40;88.00;;;;;;5073612;28;20070;-77
2021/01/19 06:06:25;;;;;;;2.85;2.50;;;6.50;88.00;;;;;;5072362;28;20035;-78
2021/01/19 06:08:59;;;;;;;4.32;2.22;;;6.50;88.10;;;;;;5072153;28;20021;-78
2021/01/19 06:11:26;;;;;;;3.45;2.30;;;6.50;88.10;;;;;;5072366;28;20020;-78
2021/01/19 06:13:53;;;;;;;4.95;2.53;;;6.50;88.10;;;;;;5072112;28;20111;-78
2021/01/19 06:16:26;;;;;;;3.35;2.40;;;6.50;88.20;;;;;;5072164;28;20081;-77
2021/01/19 06:18:53;;;;;;;5.70;2.50;;;6.50;88.20;;;;;;5073530;28;20103;-78
2021/01/19 06:21:26;;;;;;;3.42;2.25;;;6.50;88.30;;;;;;5073370;28;20024;-78
2021/01/19 06:23:51;;;;;;;3.78;2.33;;;6.50;88.40;;;;;;5072327;28;20503;-77
2021/01/19 06:26:17;;;;;;;2.88;1.85;;;6.50;88.40;;;;;;5071603;28;20133;-78
2021/01/19 06:28:43;;;;;;;3.55;2.00;;;6.50;88.50;;;;;;5073207;28;20151;-78
2021/01/19 06:31:20;;;;;;;2.17;1.98;;;6.50;89.10;;;;;;5073098;28;20060;-78
2021/01/19 06:33:47;;;;;;;3.28;2.17;;;6.50;88.60;;;;;;5071924;28;20484;-78
2021/01/19 06:36:17;;;;;;;2.40;2.00;;;6.50;88.50;;;;;;5072955;28;20009;-77
2021/01/19 06:38:44;;;;;;;2.92;2.03;;;6.50;88.50;;;;;;5073196;28;20078;-78
2021/01/19 06:41:18;;;;;;;3.00;2.45;;;6.50;88.70;;;;;;5072769;28;20531;-78
2021/01/19 06:43:46;;;;;;;2.92;2.05;;;6.50;88.70;;;;;;5072247;28;20073;-78
2021/01/19 06:46:13;;;;;;;4.28;2.15;;;6.60;88.90;;;;;;5072084;28;20028;-78
2021/01/19 06:48:42;;;;;;;4.38;1.90;;;6.60;88.90;;;;;;5071579;28;20437;-77
2021/01/19 06:51:11;;;;;;;2.10;1.80;;;6.60;89.00;;;;;;5071538;28;20028;-77
2021/01/19 06:53:45;;;;;;;2.50;1.70;;;6.60;89.00;;;;;;5071518;28;20024;-78
2021/01/19 06:56:13;;;;;;;2.00;1.90;;;6.60;89.00;;;;;;5071447;28;20364;-77
2021/01/19 06:58:56;;;;;;;1.95;1.77;;;6.60;89.00;;;;;;5071446;28;20111;-77
2021/01/19 07:01:29;;;;;;;3.38;1.88;;;6.60;89.00;;;;;;5072802;28;20107;-78
2021/01/19 07:04:22;;;;;;;4.82;1.95;;;6.70;89.00;;;;;;5072734;28;20021;-77
2021/01/19 07:07:23;;;;;;;2.40;2.20;;;6.70;89.00;;;;;;5071291;28;20016;-77
2021/01/19 07:10:03;;;;;;;2.45;2.22;;;6.70;89.70;;;;;;5071329;28;20028;-77
2021/01/19 07:12:59;;;;;;;3.08;1.90;;;6.70;89.10;;;;;;5071472;28;20074;-77
2021/01/19 07:15:56;;;;;;;1.75;1.65;;;6.70;89.20;;;;;;5071684;28;20021;-77
2021/01/19 07:18:27;;;;;;;3.17;2.03;;;6.70;89.20;;;;;;5072740;28;20036;-77
2021/01/19 07:21:11;;;;;;;3.38;1.90;;;6.70;89.30;;;;;;5071246;28;20025;-77
2021/01/19 07:23:46;;;;;;;2.25;1.83;;;6.70;89.40;;;;;;5071185;28;20070;-77
2021/01/19 07:26:21;;;;;;;2.80;2.10;;;6.70;89.40;;;;;;5072491;28;20119;-77
2021/01/19 07:28:48;;;;;;;3.38;1.77;;;6.70;89.50;;;;;;5072395;28;20037;-77
2021/01/19 07:31:16;;;;;;;3.95;2.38;;;6.70;89.50;;;;;;5072392;28;20395;-76
2021/01/19 07:33:44;;;;;;;2.65;2.10;;;6.70;89.50;;;;;;5072467;28;20052;-77
2021/01/19 07:36:18;;;;;;;3.90;2.10;;;6.80;89.70;;;;;;5071103;28;20025;-76
2021/01/19 07:38:44;;;;;;;2.10;1.88;;;6.80;89.70;;;;;;5071554;28;20132;-77
2021/01/19 07:41:10;;;;;;;2.20;1.80;;;6.80;89.80;;;;;;5072404;28;20100;-76
2021/01/19 07:43:37;;;;;;;2.55;1.80;;;6.80;89.80;;;;;;5072372;28;20033;-78
2021/01/19 07:46:04;;;;;;;1.60;1.50;;;6.80;89.80;;;;;;5071181;28;20020;-78
2021/01/19 07:48:32;;;;;;;3.08;1.70;;;6.80;89.90;;;;;;5071046;28;20029;-78
2021/01/19 07:51:14;;;;;;;1.80;1.60;;;6.90;90.00;;;;;;5071093;28;20039;-78
2021/01/19 07:53:51;;;;;;;1.80;1.70;;;6.90;90.00;;;;;;5071053;28;20052;-78
2021/01/19 07:56:30;;;;;;;2.28;2.05;;;6.90;90.00;;;;;;5072344;28;20115;-78
2021/01/19 07:58:57;;;;;;;2.85;2.05;;;6.90;90.10;;;;;;5071737;28;20439;-77
2021/01/19 08:01:30;;;;;;;2.22;1.80;;;6.90;90.10;;;;;;5070951;28;20086;-77
2021/01/19 08:04:07;;;;;;;1.92;1.63;;;6.90;90.10;;;;;;5072365;28;20033;-76
2021/01/19 08:06:34;;;;;;;2.15;1.70;;;6.90;90.10;;;;;;5076142;28;20078;-77
2021/01/19 08:09:18;;;;;;;2.22;1.70;;;6.90;90.20;;;;;;5074758;28;20119;-77
2021/01/19 08:11:45;;;;;;;2.45;1.80;;;6.90;90.20;;;;;;5074663;28;20036;-77
2021/01/19 08:14:12;;;;;;;4.97;2.67;;;7.00;90.20;;;;;;5074943;28;20562;-77
2021/01/19 08:16:41;;;;;;;27.15;3.97;;;7.00;90.20;;;;;;5075934;28;20074;-78
2021/01/19 08:19:13;;;;;;;4.03;2.00;;;7.00;90.20;;;;;;5074558;28;20028;-77
2021/01/19 08:21:52;;;;;;;2.92;2.17;;;7.00;90.20;;;;;;5074546;28;20028;-77
2021/01/19 08:24:23;;;;;;;2.78;2.10;;;7.00;90.30;;;;;;5074355;28;20039;-77
2021/01/19 08:26:50;;;;;;;1.73;1.60;;;7.00;90.30;;;;;;5074431;28;20106;-77
2021/01/19 08:29:20;;;;;;;1.75;1.50;;;7.00;90.30;;;;;;5075953;28;20044;-77
2021/01/19 08:32:00;;;;;;;2.17;1.38;;;7.00;90.30;;;;;;5075727;28;20017;-77
2021/01/19 08:34:27;;;;;;;3.10;2.00;;;7.00;90.30;;;;;;5074213;28;20039;-77
2021/01/19 08:36:55;;;;;;;3.17;1.60;;;7.10;90.40;;;;;;5074216;28;20051;-77
2021/01/19 08:39:21;;;;;;;2.60;1.60;;;7.10;90.40;;;;;;5075366;28;20024;-77
2021/01/19 08:41:52;;;;;;;2.03;1.65;;;7.10;90.40;;;;;;5074108;28;20024;-77
2021/01/19 08:44:18;;;;;;;2.83;1.60;;;7.10;90.50;;;;;;5075271;28;20055;-78
2021/01/19 08:46:45;;;;;;;1.50;1.40;;;7.10;90.60;;;;;;5074249;28;20023;-78
2021/01/19 08:49:17;;;;;;;1.80;1.63;;;7.20;90.60;;;;;;5073883;28;20032;-78
2021/01/19 08:51:48;;;;;;;2.50;1.67;;;7.20;90.70;;;;;;5075278;28;20012;-78
2021/01/19 08:54:14;;;;;;;3.58;1.55;;;7.20;90.60;;;;;;5075109;28;20066;-77
2021/01/19 08:56:42;;;;;;;3.00;2.38;;;7.20;90.60;;;;;;5073805;28;20118;-78
2021/01/19 08:59:11;;;;;;;8.70;2.78;;;7.20;90.80;;;;;;5073771;28;20028;-77
2021/01/19 09:01:47;;;;;;;5.13;3.15;;;7.20;90.80;;;;;;5075646;28;20033;-78
2021/01/19 09:04:25;;;;;;;2.10;2.00;;;7.20;90.80;;;;;;5074013;28;20393;-77
2021/01/19 09:06:52;;;;;;;2.33;1.77;;;7.30;90.90;;;;;;5074017;28;20376;-78
2021/01/19 09:09:22;;;;;;;5.20;1.92;;;7.30;90.80;;;;;;5074155;28;20017;-76
2021/01/19 09:11:48;;;;;;;2.22;1.80;;;7.20;90.90;;;;;;5076386;28;20074;-77
2021/01/19 09:14:13;;;;;;;4.03;1.85;;;7.20;90.90;;;;;;5073875;28;20523;-76
2021/01/19 09:16:40;;;;;;;2.75;1.70;;;7.30;90.90;;;;;;5073535;28;20016;-76
2021/01/19 09:19:08;;;;;;;2.10;1.90;;;7.30;90.90;;;;;;5074811;28;20073;-76
2021/01/19 09:21:36;;;;;;;2.67;1.45;;;7.30;90.90;;;;;;5074780;28;20024;-76
2021/01/19 09:24:02;;;;;;;1.60;1.50;;;7.30;90.90;;;;;;5073202;28;20036;-76
2021/01/19 09:26:27;;;;;;;4.25;1.80;;;7.40;91.00;;;;;;5074449;28;20045;-77
2021/01/19 09:28:53;;;;;;;1.80;1.70;;;7.40;91.00;;;;;;5073048;28;20166;-77
2021/01/19 09:31:23;;;;;;;3.47;1.60;;;7.40;91.10;;;;;;5073243;28;20024;-76
2021/01/19 09:33:51;;;;;;;3.10;1.67;;;7.40;91.10;;;;;;5075344;28;20021;-77
2021/01/19 09:36:17;;;;;;;1.67;1.58;;;7.40;91.10;;;;;;5073192;28;20115;-76
2021/01/19 09:38:45;;;;;;;2.63;1.70;;;7.40;91.10;;;;;;5073148;28;20150;-77
2021/01/19 09:41:18;;;;;;;1.90;1.60;;;7.50;91.20;;;;;;5073472;28;20032;-77
2021/01/19 09:43:57;;;;;;;2.05;1.80;;;7.50;91.20;;;;;;5074276;28;20020;-77
2021/01/19 09:46:28;;;;;;;2.95;1.92;;;7.50;91.20;;;;;;5074307;28;20025;-77
2021/01/19 09:48:59;;;;;;;2.45;1.90;;;7.50;91.20;;;;;;5074372;28;20016;-77
2021/01/19 09:51:29;;;;;;;1.73;1.63;;;7.50;91.20;;;;;;5073430;28;20019;-76
2021/01/19 09:53:56;;;;;;;2.10;1.90;;;7.50;91.30;;;;;;5074296;28;20099;-77
2021/01/19 09:56:21;;;;;;;2.00;1.90;;;7.60;91.30;;;;;;5074077;28;20330;-77
2021/01/19 09:58:47;;;;;;;2.50;2.30;;;7.60;91.30;;;;;;5074613;28;20111;-77
2021/01/19 10:01:23;;;;;;;5.90;3.00;;;7.60;91.40;;;;;;5072699;28;20035;-77
2021/01/19 10:03:49;;;;;;;4.68;2.90;;;7.60;91.50;;;;;;5074186;28;20054;-77
2021/01/19 10:06:20;;;;;;;4.45;3.13;;;7.60;91.50;;;;;;5072754;28;20027;-78
2021/01/19 10:08:50;;;;;;;6.75;2.83;;;7.60;91.50;;;;;;5072774;28;20017;-77
2021/01/19 10:11:29;;;;;;;3.58;2.97;;;7.70;91.50;;;;;;5072649;28;20021;-77
2021/01/19 10:13:55;;;;;;;2.67;2.47;;;7.70;91.60;;;;;;5072620;28;20111;-77
2021/01/19 10:16:28;;;;;;;2.47;2.20;;;7.70;91.60;;;;;;5072498;28;20075;-76
2021/01/19 10:18:56;;;;;;;3.10;2.80;;;7.70;91.60;;;;;;5072459;28;20036;-77
2021/01/19 10:21:31;;;;;;;2.60;2.40;;;7.80;91.70;;;;;;5072611;28;20480;-77
2021/01/19 10:23:58;;;;;;;3.35;2.60;;;7.80;91.80;;;;;;5073523;28;20028;-76
2021/01/19 10:26:28;;;;;;;2.65;2.45;;;7.80;91.80;;;;;;5072811;28;20040;-77
2021/01/19 10:28:56;;;;;;;3.25;2.53;;;7.90;92.00;;;;;;5071828;28;20488;-77
2021/01/19 10:31:26;;;;;;;3.38;3.08;;;7.90;91.80;;;;;;5074863;28;20033;-77
2021/01/19 10:33:58;;;;;;;4.50;3.20;;;7.90;91.80;;;;;;5073252;28;20020;-76
2021/01/19 10:36:25;;;;;;;3.35;3.05;;;8.00;91.80;;;;;;5072270;28;20028;-77
2021/01/19 10:38:51;;;;;;;3.55;3.00;;;8.00;91.80;;;;;;5072656;28;20020;-78
2021/01/19 10:41:30;;;;;;;3.90;3.15;;;8.00;91.90;;;;;;5074046;28;20036;-78
2021/01/19 10:43:57;;;;;;;3.53;2.90;;;8.10;91.90;;;;;;5072803;28;20198;-77
2021/01/19 10:49:44;;;;;;;2.75;2.55;;;8.20;91.90;;;;;;5074433;28;20081;-77
2021/01/19 10:52:12;;;;;;;5.60;2.90;;;8.20;91.90;;;;;;5072295;28;20111;-78
2021/01/19 10:54:38;;;;;;;3.90;3.20;;;8.20;91.90;;;;;;5072333;28;20115;-78
2021/01/19 10:57:08;;;;;;;3.90;3.55;;;8.30;92.00;;;;;;5073841;28;20042;-77
2021/01/19 10:59:34;;;;;;;3.28;3.05;;;8.30;92.00;;;;;;5073879;28;20021;-77
2021/01/19 11:02:02;;;;;;;3.33;3.00;;;8.40;92.10;;;;;;5073256;28;20078;-76
2021/01/19 11:04:28;;;;;;;3.33;3.03;;;8.40;92.20;;;;;;5071992;28;20024;-76
2021/01/19 11:06:53;;;;;;;4.13;2.63;;;8.40;92.20;;;;;;5072086;28;20207;-76
2021/01/19 11:09:19;;;;;;;2.60;2.40;;;8.50;92.30;;;;;;5072416;28;20031;-77
2021/01/19 11:11:45;;;;;;;3.53;2.88;;;8.50;92.30;;;;;;5073081;28;20081;-75
2021/01/19 11:14:10;;;;;;;4.18;2.60;;;8.60;92.50;;;;;;5071596;28;20100;-77
2021/01/19 11:16:39;;;;;;;3.78;2.38;;;8.70;92.60;;;;;;5071624;28;20021;-76
2021/01/19 11:19:07;;;;;;;2.70;2.50;;;8.70;92.60;;;;;;5073076;28;20112;-76
2021/01/19 11:21:34;;;;;;;2.88;2.60;;;8.80;92.50;;;;;;5073123;28;20020;-75
2021/01/19 11:24:01;;;;;;;2.83;2.10;;;8.80;92.60;;;;;;5071409;28;20028;-75
2021/01/19 11:26:28;;;;;;;2.38;1.98;;;8.90;92.60;;;;;;5071790;28;20187;-76
2021/01/19 11:28:54;;;;;;;2.10;1.90;;;9.00;92.60;;;;;;5072190;28;20032;-76
2021/01/19 11:31:28;;;;;;;2.50;1.90;;;9.00;92.50;;;;;;5071496;28;20020;-77
2021/01/19 11:33:55;;;;;;;2.17;2.08;;;9.00;92.60;;;;;;5071291;28;20024;-77
2021/01/19 11:36:34;;;;;;;2.40;2.20;;;9.10;92.60;;;;;;5071519;28;20017;-76
2021/01/19 11:39:02;;;;;;;2.30;2.10;;;9.10;92.70;;;;;;5072614;28;20069;-79
2021/01/19 11:41:28;;;;;;;2.60;2.10;;;9.10;92.70;;;;;;5078211;28;20125;-78
2021/01/19 11:43:55;;;;;;;3.95;2.53;;;9.10;92.70;;;;;;5078979;28;20025;-76
2021/01/19 11:46:30;;;;;;;3.00;2.70;;;9.20;92.80;;;;;;5079759;28;20029;-78
2021/01/19 11:48:58;;;;;;;2.90;2.53;;;9.20;92.80;;;;;;5078008;28;20115;-79
2021/01/19 11:51:29;;;;;;;3.83;2.70;;;9.20;92.80;;;;;;5077679;28;20059;-78
2021/01/19 11:53:57;;;;;;;2.88;2.58;;;9.20;92.80;;;;;;5077119;28;20036;-78
2021/01/19 11:56:45;;;;;;;4.10;2.97;;;9.20;92.80;;;;;;5077014;28;20073;-78
2021/01/19 11:59:11;;;;;;;3.00;2.80;;;9.20;92.80;;;;;;5077791;28;20090;-78
2021/01/19 12:01:38;;;;;;;4.03;3.40;;;9.30;92.80;;;;;;5076416;28;20053;-78
2021/01/19 12:04:04;;;;;;;3.47;3.17;;;9.30;92.90;;;;;;5075319;28;20081;-77
2021/01/19 12:06:38;;;;;;;4.45;3.20;;;9.30;92.90;;;;;;5075943;28;20016;-78
2021/01/19 12:09:08;;;;;;;3.20;2.90;;;9.30;92.90;;;;;;5076255;28;20047;-77
2021/01/19 12:11:49;;;;;;;3.45;3.13;;;9.40;92.90;;;;;;5076098;28;20020;-76
2021/01/19 12:14:15;;;;;;;3.88;3.35;;;9.40;93.00;;;;;;5076018;28;20031;-77
2021/01/19 12:16:41;;;;;;;3.45;3.15;;;9.40;93.00;;;;;;5077023;28;20013;-77
2021/01/19 12:19:10;;;;;;;4.35;3.67;;;9.40;93.00;;;;;;5076599;28;20028;-77
2021/01/19 12:21:53;;;;;;;3.65;3.28;;;9.40;93.00;;;;;;5078276;28;20059;-77
2021/01/19 12:24:19;;;;;;;3.72;3.25;;;9.40;93.00;;;;;;5076010;28;20025;-77
2021/01/19 12:26:46;;;;;;;3.72;3.38;;;9.50;93.10;;;;;;5075034;28;20048;-77
2021/01/19 12:29:13;;;;;;;4.97;3.45;;;9.50;93.10;;;;;;5075988;28;20016;-78
2021/01/19 12:31:38;;;;;;;4.25;3.83;;;9.50;93.10;;;;;;5076716;28;20028;-78
2021/01/19 12:34:04;;;;;;;6.10;5.05;;;9.50;93.10;;;;;;5076143;28;20051;-78
2021/01/19 12:36:30;;;;;;;5.35;4.07;;;9.50;93.20;;;;;;5074996;28;20021;-78
2021/01/19 12:38:58;;;;;;;5.88;4.53;;;9.60;93.20;;;;;;5076785;28;20051;-78
2021/01/19 12:41:27;;;;;;;8.80;5.10;;;9.60;93.20;;;;;;5075150;28;20031;-78
2021/01/19 12:43:53;;;;;;;7.00;4.93;;;9.60;93.20;;;;;;5076665;28;20028;-78
2021/01/19 12:46:19;;;;;;;7.50;5.35;;;9.60;93.30;;;;;;5077088;28;20464;-78
2021/01/19 12:48:44;;;;;;;5.70;4.88;;;9.60;93.30;;;;;;5078452;28;20029;-79
2021/01/19 12:51:14;;;;;;;6.75;4.88;;;9.70;93.30;;;;;;5076804;28;20025;-78
2021/01/19 12:53:41;;;;;;;6.75;5.07;;;9.60;93.20;;;;;;5076955;28;20168;-78
2021/01/19 12:56:14;;;;;;;8.57;5.38;;;9.60;93.20;;;;;;5074874;28;20024;-78
2021/01/19 12:58:40;;;;;;;5.33;4.20;;;9.70;93.20;;;;;;5077281;28;20028;-79
2021/01/19 13:01:07;;;;;;;5.32;4.35;;;9.70;93.20;;;;;;5076313;28;20290;-78
2021/01/19 13:03:33;;;;;;;6.35;4.78;;;9.70;93.20;;;;;;5074773;28;20029;-78
2021/01/19 13:05:59;;;;;;;5.93;4.03;;;9.80;93.20;;;;;;5075723;28;20025;-78
2021/01/19 13:08:25;;;;;;;9.52;4.40;;;9.80;93.20;;;;;;5075131;28;20021;-79
2021/01/19 13:10:51;;;;;;;5.97;4.30;;;9.80;93.20;;;;;;5076207;28;20031;-78
2021/01/19 13:13:17;;;;;;;7.20;4.10;;;9.80;93.20;;;;;;5074485;28;20383;-77
2021/01/19 13:15:43;;;;;;;7.00;3.90;;;9.80;93.20;;;;;;5073612;28;20021;-77